Terminal Aerodrome Forecast
Issued by NWS

Home | Current Version | Previous Version | Graphics & Text | Print | Product List | Glossary On
Versions: 1 2 3 4 5 6 7 8 9 10 11 12 13 14 15
000
FTUS43 KIWX 242300
TAFSBN
TAF
KSBN 242339Z 2500/2524 24014G20KT P6SM BKN035
     FM250300 28013KT P6SM SKC
     FM250900 32006KT P6SM OVC025
     FM251400 VRB02KT P6SM BKN100=

USA.gov is the U.S. government's official web portal to all federal, state and local government web resources and services.